createdAt,value
2022-11-17T00:00:26.843Z,0
2022-11-17T00:05:45.519Z,0
2022-11-17T00:11:04.172Z,0
2022-11-17T00:16:23.501Z,0
2022-11-17T00:21:42.451Z,0
2022-11-17T00:27:02.213Z,0
2022-11-17T00:32:21.872Z,0
2022-11-17T00:37:41.163Z,0
2022-11-17T00:43:00.130Z,0
2022-11-17T00:48:19.647Z,0
2022-11-17T00:53:39.227Z,0
2022-11-17T00:58:58.855Z,0
2022-11-17T01:04:17.688Z,0
2022-11-17T01:09:36.910Z,0
2022-11-17T01:14:55.938Z,0
2022-11-17T01:20:15.293Z,0
2022-11-17T01:25:34.789Z,0
2022-11-17T01:30:54.588Z,0
2022-11-17T01:36:13.704Z,0
2022-11-17T01:41:32.808Z,0
2022-11-17T01:46:54.612Z,0
2022-11-17T01:52:11.481Z,0
2022-11-17T01:57:30.859Z,0
2022-11-17T02:02:50.193Z,0
2022-11-17T02:08:09.405Z,0
2022-11-17T02:13:29.155Z,0
2022-11-17T02:18:48.805Z,0
2022-11-17T02:24:07.876Z,0
2022-11-17T02:29:26.922Z,0
2022-11-17T02:34:45.763Z,0
2022-11-17T02:40:05.423Z,0
2022-11-17T02:45:24.328Z,0
2022-11-17T02:50:43.836Z,0
2022-11-17T02:56:02.797Z,0
2022-11-17T03:01:21.816Z,0
2022-11-17T03:06:41.401Z,0
2022-11-17T03:11:59.666Z,0
2022-11-17T03:17:19.058Z,0
2022-11-17T03:22:38.573Z,0
2022-11-17T03:27:57.678Z,0
2022-11-17T03:33:17.374Z,0
2022-11-17T03:38:37.348Z,0
2022-11-17T03:43:56.375Z,0
2022-11-17T03:49:16.118Z,0
2022-11-17T03:54:35.413Z,0
2022-11-17T03:59:54.882Z,0
2022-11-17T04:05:14.432Z,0
2022-11-17T04:10:33.309Z,0
2022-11-17T04:10:58.366Z,0
2022-11-17T04:16:17.598Z,0
2022-11-17T04:21:36.508Z,0
2022-11-17T04:26:55.964Z,0
2022-11-17T04:32:15.453Z,0
2022-11-17T04:37:34.692Z,0
2022-11-17T04:42:53.610Z,0
2022-11-17T04:48:13.370Z,0
2022-11-17T04:53:33.227Z,0
2022-11-17T04:58:52.298Z,0
2022-11-17T05:04:12.057Z,0
2022-11-17T05:09:31.023Z,0
2022-11-17T05:14:50.275Z,0
2022-11-17T05:20:09.066Z,0
2022-11-17T05:30:48.097Z,0
2022-11-17T05:36:07.138Z,0
2022-11-17T05:41:26.136Z,0
2022-11-17T05:46:44.906Z,0
2022-11-17T05:57:24.208Z,0
2022-11-17T06:02:42.411Z,0
2022-11-17T06:13:21.508Z,6
2022-11-17T06:18:41.120Z,15
2022-11-17T06:24:00.393Z,36
2022-11-17T06:29:19.976Z,92
2022-11-17T06:34:38.333Z,171
2022-11-17T06:39:57.557Z,271
2022-11-17T06:45:17.164Z,311
2022-11-17T06:50:36.389Z,228
2022-11-17T06:55:55.368Z,375
2022-11-17T07:06:33.729Z,1236
2022-11-17T07:11:53.434Z,1388
2022-11-17T07:17:12.317Z,922
2022-11-17T07:22:31.422Z,774
2022-11-17T07:33:10.668Z,1825
2022-11-17T07:38:30.210Z,2599
2022-11-17T07:49:08.627Z,1413
2022-11-17T07:59:46.415Z,3034
2022-11-17T08:05:05.429Z,2959
2022-11-17T08:15:43.386Z,2904
2022-11-17T08:21:02.453Z,2144
2022-11-17T08:31:41.709Z,2224
2022-11-17T08:37:01.182Z,3034
2022-11-17T08:42:19.898Z,5317
2022-11-17T08:47:39.276Z,5322
2022-11-17T08:58:17.703Z,5657
2022-11-17T09:03:36.543Z,3381
2022-11-17T09:14:15.108Z,2425
2022-11-17T09:19:34.394Z,5862
2022-11-17T09:24:53.945Z,6371
2022-11-17T09:30:13.382Z,7668
2022-11-17T09:35:32.088Z,8079
2022-11-17T09:40:50.882Z,7125
2022-11-17T09:46:10.166Z,4250
2022-11-17T09:56:47.935Z,4091
2022-11-17T10:02:07.389Z,3237
2022-11-17T10:07:26.194Z,3815
2022-11-17T10:12:45.740Z,4069
2022-11-17T10:23:24.070Z,2340
2022-11-17T10:28:43.622Z,3794
2022-11-17T10:34:02.623Z,6649
2022-11-17T10:39:22.585Z,6325
2022-11-17T10:44:42.129Z,3256
2022-11-17T10:55:19.736Z,2602
2022-11-17T11:00:38.010Z,3800
2022-11-17T11:05:57.307Z,5175
2022-11-17T11:11:16.576Z,5774
2022-11-17T11:16:36.312Z,5322
2022-11-17T11:21:55.368Z,3084
2022-11-17T11:27:15.038Z,3012
2022-11-17T11:37:52.288Z,4255
2022-11-17T11:43:11.260Z,2519
2022-11-17T11:48:30.694Z,4660
2022-11-17T11:53:49.904Z,2560
2022-11-17T11:59:09.551Z,1926
2022-11-17T12:04:36.208Z,778
2022-11-17T12:09:47.681Z,1335
2022-11-17T12:20:26.176Z,6621
2022-11-17T12:25:49.147Z,7344
2022-11-17T12:31:09.678Z,7165
2022-11-17T12:36:30.000Z,8990
2022-11-17T12:47:02.931Z,9220
2022-11-17T12:52:22.020Z,5962
2022-11-17T13:03:00.807Z,5866
2022-11-17T13:08:20.274Z,6659
2022-11-17T13:13:42.598Z,5813
2022-11-17T13:18:58.610Z,7578
2022-11-17T13:24:17.551Z,10304
2022-11-17T13:29:36.698Z,6765
2022-11-17T13:40:14.997Z,4135
2022-11-17T13:45:33.884Z,3695
2022-11-17T13:56:12.672Z,4248
2022-11-17T14:01:32.181Z,3190
2022-11-17T14:06:50.881Z,2375
2022-11-17T14:12:20.508Z,1341
2022-11-17T14:17:29.291Z,566
2022-11-17T14:22:48.249Z,602
2022-11-17T14:28:07.090Z,1687
2022-11-17T14:38:54.182Z,707
2022-11-17T14:44:04.030Z,261
2022-11-17T14:54:41.961Z,925
2022-11-17T15:05:21.230Z,1095
2022-11-17T15:10:40.405Z,533
2022-11-17T15:21:19.095Z,209
2022-11-17T15:26:37.907Z,205
2022-11-17T15:37:16.302Z,85
2022-11-17T15:47:55.205Z,56
2022-11-17T15:53:14.144Z,25
2022-11-17T15:58:33.833Z,5
2022-11-17T16:03:52.756Z,1
2022-11-17T16:09:12.035Z,0
2022-11-17T16:19:50.076Z,0
2022-11-17T16:25:09.076Z,0
2022-11-17T16:30:32.819Z,0
2022-11-17T16:35:55.536Z,0
2022-11-17T16:46:26.851Z,0
2022-11-17T16:51:45.999Z,0
2022-11-17T17:02:25.160Z,0
2022-11-17T17:07:44.923Z,0
2022-11-17T17:18:23.072Z,0
2022-11-17T17:23:41.778Z,0
2022-11-17T17:29:00.794Z,0
2022-11-17T17:34:19.885Z,0
2022-11-17T17:44:59.245Z,0
2022-11-17T17:50:18.977Z,0
2022-11-17T17:55:37.887Z,0
2022-11-17T18:00:57.048Z,0
2022-11-17T18:06:16.525Z,0
2022-11-17T18:11:35.835Z,0
2022-11-17T18:16:54.911Z,0
2022-11-17T18:27:33.901Z,0
2022-11-17T18:32:52.915Z,0
2022-11-17T18:38:12.587Z,0
2022-11-17T18:43:39.833Z,0
2022-11-17T18:54:10.221Z,0
2022-11-17T18:59:29.267Z,0
2022-11-17T19:10:07.550Z,0
2022-11-17T19:15:26.792Z,0
2022-11-17T19:26:05.308Z,0
2022-11-17T19:31:24.950Z,0
2022-11-17T19:36:44.453Z,0
2022-11-17T19:42:03.685Z,0
2022-11-17T19:47:22.942Z,0
2022-11-17T19:52:51.449Z,0
2022-11-17T19:58:09.888Z,0
2022-11-17T20:08:40.285Z,0
2022-11-17T20:13:59.993Z,0
2022-11-17T20:19:19.466Z,0
2022-11-17T20:29:57.170Z,0
2022-11-17T20:35:16.304Z,0
2022-11-17T20:45:54.607Z,0
2022-11-17T20:51:13.982Z,0
2022-11-17T21:01:51.944Z,0
2022-11-17T21:12:31.959Z,0
2022-11-17T21:17:50.780Z,0
2022-11-17T21:23:11.026Z,0
2022-11-17T21:28:28.842Z,0
2022-11-17T21:33:47.762Z,0
2022-11-17T21:44:26.412Z,0
2022-11-17T21:49:45.575Z,0
2022-11-17T22:00:48.276Z,0
2022-11-17T22:06:07.061Z,0
2022-11-17T22:11:26.349Z,0
2022-11-17T22:16:45.629Z,0
2022-11-17T22:22:04.638Z,0
2022-11-17T22:27:23.739Z,0
2022-11-17T22:32:45.355Z,0
2022-11-17T22:43:21.140Z,0
2022-11-17T22:48:39.970Z,0
2022-11-17T22:59:18.847Z,0
2022-11-17T23:04:38.345Z,0
2022-11-17T23:15:16.781Z,0
2022-11-17T23:25:55.860Z,0
2022-11-17T23:31:15.029Z,0
2022-11-17T23:41:53.558Z,0
2022-11-17T23:47:12.657Z,0
2022-11-17T23:52:31.217Z,0
2022-11-17T23:57:50.212Z,0
